Chambers, Louisiana
Current Conditions -  °F | °C
As of 3:53 AM on Wednesday 26 Nov 2014 (Local Time) from KAEX Reporting Station
Clear Clear  
Wind Chill: 36°   Ceiling: Unl
Heat Index: 36°   Visibility: 10mi
Dew Point: 34°   Wind: 3mph
Humidity: 93%   Direction: 110°ESE
Pressure: 30.18"   Gusts: NA
Location:  31.1282°N, 92.3823°W
Report Text: KAEX 260953Z AUTO 11003KT 10SM CLR 02/01 A3018 RMK AO2 SLP225 T00220011
Loading
Personal Weather Stations






























Interactive Weather Map New forecast layout! Learn more

10-Day Weather Forecast

Advertisements
Track Severe Weather on mobile